Kezdőlap
METAR-TAF:

METAR-TAF

Repülőterek :

Chimoio, Mozambik

földrajzi szélesség: 19-07S, földrajzi hosszúság: 033-28E, magasság: 731 m

Jelenlegi meteorológiai megfigyelések

A jelentés 56 perccel ezelõtt készült, 06:00 UTC
Hőmérséklet 17°C
Páratartalom 94%
Légköri nyomás 1029 hPa
Látótávolság 10 km, vagy több
Szakadozott felhőzet 1500 lábon

METAR: FQCH 280600Z /////KT 9999 BKN015 17/16 Q1029

Idő: 08:56 (06:56 UTC)

Előrejelzés

A jelentés 2 órával és 56 perccel ezelõtt készült, 04:00 UTC
Az előrejelzés 28-én 06 óra UTC és 29-én 06 óra UTC között érvényes
Délnyugati szél 6 kt
Látótávolság 10 km, vagy több
Szórványos felhőzet 2000 lábon
28-én 12 óra UTC és 28-én 14 óra UTC között fokozatosan kialakuló
Dél-délkeleti szél 11 kt
28-én 18 óra UTC és 28-én 20 óra UTC között fokozatosan kialakuló
Különbözõ irányokból fújó szél 2 kt

TAF: FQCH 280400Z 2806/2906 23006KT 9999 SCT020 TX22/2813Z TN13/2902Z BECMG 2812/2814 16011KT BECMG 2818/2820 VRB02KT

Meteorológiai megfigyelések és előrejelzések több, mint 4000 repülőtéren (METAR és TAF jelentéseket).

A térképen piros és sárga pontok jelzik az elérhető meteorológiai állomásokat.

Mozgassa az egeret a pont fölött, hogy megjelenjen az állomás neve.

Azután kattintson az időjárási megfigyelések és előrejelzések megtekintéséhez.

A térkép megváltoztatása: kattintson a fekete keresztel jelölt zöld gombra ráközelítéshez, a vonallal jelölt zöld gombra távolításhoz, vagy a zöld nyilakra a szomszédos térképek eléréséhez.


METAR-TAF: